Sikesville, Alabama
Current Conditions -  °F | °C
As of 2:35 AM on Saturday 20 Dec 2014 (Local Time) from KLGC Reporting Station
Drizzle Drizzle  
Wind Chill: 46°   Ceiling: 5500
Heat Index: 46°   Visibility: 7mi
Dew Point: 44°   Wind: 0mph
Humidity: 96%   Direction: NA
Pressure: 30.13"   Gusts: NA
Location:  33.1661°N, 85.5111°W
Report Text: KLGC 200835Z AUTO 00000KT 7SM -DZ SCT050 BKN055 OVC095 08/07 A3013 RMK AO2 T00750069
Loading
Personal Weather Stations






























Interactive Weather Map New forecast layout! Learn more

10-Day Weather Forecast

Advertisements
Track Severe Weather on mobile